| time (UTC) | temp C | wind direction | speed KPH | gust KPH | rain 1hr cm | rain 24hr cm | rain mn cm | humidity % | barometer mb |
| 20260507145505 | 16 | 0.0 | 0.0 | 0.00 | 0.00 | 20.98 | 63 | 1023.1 | |
| 20260507144505 | 15 | 0.0 | 0.0 | 0.00 | 0.00 | 20.98 | 67 | 1023.6 | |
| 20260507143505 | 15 | 0.0 | 0.0 | 0.00 | 0.00 | 20.98 | 67 | 1023.8 | |
| 20260507142505 | 15 | 0.0 | 0.0 | 0.00 | 0.00 | 20.98 | 65 | 1023.7 | |
| 20260507141505 | 15 | 0.0 | 0.0 | 0.00 | 0.00 | 20.98 | 68 | 1023.8 | |
| 20260507140505 | 14 | 0.0 | 0.0 | 0.00 | 0.00 | 20.98 | 69 | 1023.9 | |
| 20260507135505 | 15 | 0.0 | 0.0 | 0.00 | 0.00 | 20.98 | 70 | 1023.7 | |
| 20260507134505 | 15 | 0.0 | 0.0 | 0.00 | 0.00 | 20.98 | 70 | 1023.6 | |
| 20260507133505 | 15 | 0.0 | 0.0 | 0.00 | 0.00 | 20.98 | 72 | 1023.5 | |
| 20260507132505 | 15 | 0.0 | 0.0 | 0.00 | 0.00 | 20.98 | 73 | 1023.6 | |
| 20260507131505 | 13 | 0.0 | 0.0 | 0.00 | 0.00 | 20.98 | 76 | 1023.6 | |
| 20260507130505 | 13 | 0.0 | 0.0 | 0.00 | 0.00 | 20.98 | 81 | 1023.9 | |
| 20260507125505 | 13 | 0.0 | 0.0 | 0.00 | 0.00 | 20.98 | 81 | 1023.8 | |
| 20260507124505 | 13 | 0.0 | 0.0 | 0.00 | 0.00 | 20.98 | 82 | 1023.7 | |
| 20260507123505 | 12 | 0.0 | 0.0 | 0.00 | 0.00 | 20.98 | 83 | 1023.8 | |
| 20260507122505 | 12 | 0.0 | 0.0 | 0.00 | 0.00 | 20.98 | 84 | 1023.9 | |
| 20260507121505 | 12 | 0.0 | 0.0 | 0.00 | 0.00 | 20.98 | 82 | 1023.7 | |
| 20260507120505 | 12 | 0.0 | 0.0 | 0.00 | 0.00 | 20.98 | 82 | 1023.4 | |
| 20260507115505 | 12 | 0.0 | 0.0 | 0.00 | 0.00 | 20.98 | 83 | 1023.4 | |
| 20260507114505 | 13 | 0.0 | 0.0 | 0.00 | 0.00 | 20.98 | 81 | 1023.1 | |
| 20260507113505 | 13 | 0.0 | 0.0 | 0.00 | 0.00 | 20.98 | 80 | 1023.0 | |
| 20260507112505 | 12 | 0.0 | 0.0 | 0.00 | 0.00 | 20.98 | 82 | 1023.2 | |
| 20260507111506 | 12 | 0.0 | 0.0 | 0.00 | 0.00 | 20.98 | 84 | 1023.2 | |
| 20260507110505 | 12 | 0.0 | 0.0 | 0.00 | 0.00 | 20.98 | 84 | 1023.0 | |
| 20260507105505 | 12 | 0.0 | 0.0 | 0.00 | 0.00 | 20.98 | 83 | 1022.9 | |
| 20260507104506 | 12 | 0.0 | 0.0 | 0.00 | 0.00 | 20.98 | 82 | 1022.7 | |
| 20260507103505 | 13 | 0.0 | 0.0 | 0.00 | 0.00 | 20.98 | 80 | 1022.5 | |
| 20260507102505 | 13 | 0.0 | 0.0 | 0.00 | 0.00 | 20.98 | 82 | 1022.5 | |
| 20260507101507 | 12 | 0.0 | 0.0 | 0.00 | 0.00 | 20.98 | 81 | 1022.4 | |
| 20260507100505 | 13 | 0.0 | 0.0 | 0.00 | 0.00 | 20.98 | 79 | 1022.4 | |
| 20260507095505 | 14 | 0.0 | 0.0 | 0.00 | 0.00 | 20.98 | 76 | 1021.9 | |
| 20260507094505 | 13 | 0.0 | 0.0 | 0.00 | 0.00 | 20.98 | 77 | 1021.9 | |
| 20260507093505 | 13 | 0.0 | 0.0 | 0.00 | 0.00 | 20.98 | 79 | 1022.0 | |
| 20260507092505 | 13 | 0.0 | 0.0 | 0.00 | 0.00 | 20.98 | 78 | 1021.8 | |
| 20260507091505 | 13 | 0.0 | 0.0 | 0.00 | 0.00 | 20.98 | 78 | 1021.7 | |
| 20260507090505 | 13 | 0.0 | 0.0 | 0.00 | 0.00 | 20.98 | 79 | 1021.8 | |
| 20260507085505 | 13 | 0.0 | 0.0 | 0.00 | 0.00 | 20.98 | 80 | 1021.6 | |
| 20260507084505 | 13 | 0.0 | 0.0 | 0.00 | 0.00 | 20.98 | 79 | 1021.5 | |
| 20260507083505 | 13 | 0.0 | 0.0 | 0.00 | 0.00 | 20.98 | 80 | 1021.5 | |
| 20260507082505 | 12 | 0.0 | 0.0 | 0.00 | 0.00 | 20.98 | 81 | 1021.6 | |
| 20260507081505 | 13 | 0.0 | 0.0 | 0.00 | 0.00 | 20.98 | 81 | 1021.5 | |
| 20260507080505 | 12 | 0.0 | 0.0 | 0.00 | 0.00 | 20.98 | 84 | 1021.7 | |
| 20260507075505 | 12 | 0.0 | 0.0 | 0.00 | 0.00 | 20.98 | 82 | 1021.6 | |
| 20260507074505 | 13 | 0.0 | 0.0 | 0.00 | 0.00 | 20.98 | 79 | 1021.4 | |
| 20260507073505 | 13 | 0.0 | 0.0 | 0.00 | 0.00 | 20.98 | 79 | 1021.3 | |
| 20260507072505 | 13 | 0.0 | 0.0 | 0.00 | 0.00 | 20.98 | 78 | 1021.1 | |
| 20260507071505 | 13 | 0.0 | 0.0 | 0.00 | 0.00 | 20.98 | 77 | 1021.2 | |
| 20260507070505 | 14 | 0.0 | 0.0 | 0.00 | 0.00 | 20.98 | 75 | 1021.1 | |
| 20260507065505 | 13 | 0.0 | 0.0 | 0.00 | 0.00 | 20.98 | 77 | 1021.2 | |
| 20260507064505 | 13 | 0.0 | 0.0 | 0.00 | 0.00 | 20.98 | 77 | 1021.4 | |
| 20260507063505 | 13 | 0.0 | 0.0 | 0.00 | 0.00 | 20.98 | 80 | 1021.5 | |
| 20260507062505 | 13 | 0.0 | 0.0 | 0.00 | 0.00 | 20.98 | 78 | 1021.3 | |
| 20260507061505 | 13 | 0.0 | 0.0 | 0.00 | 0.00 | 20.98 | 81 | 1021.3 | |
| 20260507060505 | 12 | 0.0 | 0.0 | 0.00 | 0.00 | 20.98 | 84 | 1021.4 | |
| 20260507055505 | 12 | 0.0 | 0.0 | 0.00 | 0.00 | 20.98 | 85 | 1021.5 | |
| 20260507054505 | 12 | 0.0 | 0.0 | 0.00 | 0.00 | 20.98 | 84 | 1021.5 | |
| 20260507053505 | 12 | 0.0 | 0.0 | 0.00 | 0.00 | 20.98 | 81 | 1021.3 | |
| 20260507052505 | 13 | 0.0 | 0.0 | 0.00 | 0.00 | 20.98 | 78 | 1020.9 | |
| 20260507051505 | 13 | 0.0 | 0.0 | 0.00 | 0.00 | 20.98 | 79 | 1020.6 | |
| 20260507050505 | 13 | 0.0 | 0.0 | 0.00 | 0.00 | 20.98 | 78 | 1020.7 | |
| 20260507045505 | 14 | 0.0 | 0.0 | 0.00 | 0.00 | 20.98 | 76 | 1020.8 | |
| 20260507044505 | 13 | 0.0 | 0.0 | 0.00 | 0.00 | 20.98 | 75 | 1020.8 | |
| 20260507043505 | 14 | 0.0 | 0.0 | 0.00 | 0.00 | 20.98 | 73 | 1020.8 | |
| 20260507042505 | 14 | 0.0 | 0.0 | 0.00 | 0.00 | 20.98 | 72 | 1020.8 | |
| 20260507041505 | 15 | 0.0 | 0.0 | 0.00 | 0.00 | 20.98 | 71 | 1020.6 | |
| 20260507040505 | 15 | 0.0 | 0.0 | 0.00 | 0.00 | 20.98 | 74 | 1020.6 | |
| 20260507035505 | 15 | 0.0 | 0.0 | 0.00 | 0.00 | 20.98 | 73 | 1020.6 | |
| 20260507034505 | 15 | 0.0 | 0.0 | 0.00 | 0.00 | 20.98 | 74 | 1020.4 | |
| 20260507033505 | 15 | 0.0 | 0.0 | 0.00 | 0.00 | 20.98 | 75 | 1020.5 | |
| 20260507032505 | 14 | 0.0 | 0.0 | 0.00 | 0.00 | 20.98 | 76 | 1020.6 | |
| 20260507031505 | 14 | 0.0 | 0.0 | 0.00 | 0.00 | 20.98 | 75 | 1020.7 | |
| 20260507030505 | 13 | 0.0 | 0.0 | 0.00 | 0.00 | 20.98 | 78 | 1020.6 | |
| 20260507025505 | 15 | 0.0 | 0.0 | 0.00 | 0.00 | 20.98 | 75 | 1020.2 | |
| 20260507024505 | 15 | 0.0 | 0.0 | 0.00 | 0.00 | 20.98 | 76 | 1020.2 | |
| 20260507023505 | 15 | 0.0 | 0.0 | 0.00 | 0.00 | 20.98 | 78 | 1020.1 | |
| 20260507022505 | 15 | 0.0 | 0.0 | 0.00 | 0.00 | 20.98 | 79 | 1020.0 | |
| 20260507021505 | 15 | 0.0 | 0.0 | 0.00 | 0.00 | 20.98 | 78 | 1020.0 | |
| 20260507020505 | 14 | 0.0 | 0.0 | 0.00 | 0.00 | 20.98 | 81 | 1019.9 | |
| 20260507015505 | 14 | 0.0 | 0.0 | 0.00 | 0.00 | 20.98 | 82 | 1019.8 | |
| 20260507014505 | 13 | 0.0 | 0.0 | 0.00 | 0.00 | 20.98 | 85 | 1020.1 | |
| 20260507013505 | 13 | 0.0 | 0.0 | 0.00 | 0.00 | 20.98 | 85 | 1019.9 | |
| 20260507012505 | 13 | 0.0 | 0.0 | 0.00 | 0.00 | 20.98 | 86 | 1020.0 | |
| 20260507011505 | 13 | 0.0 | 0.0 | 0.00 | 0.00 | 20.98 | 85 | 1019.8 | |
| 20260507010505 | 14 | 0.0 | 0.0 | 0.00 | 0.00 | 20.98 | 85 | 1019.8 | |
| 20260507005505 | 14 | 0.0 | 0.0 | 0.00 | 0.00 | 20.98 | 84 | 1019.7 | |
| 20260507004505 | 13 | 0.0 | 0.0 | 0.00 | 0.00 | 20.98 | 86 | 1019.7 | |
| 20260507003505 | 13 | 0.0 | 0.0 | 0.00 | 0.00 | 20.98 | 88 | 1019.6 | |
| 20260507002505 | 13 | 0.0 | 0.0 | 0.00 | 0.00 | 20.98 | 87 | 1019.5 | |
| 20260507001505 | 14 | 0.0 | 0.0 | 0.00 | 0.00 | 20.98 | 88 | 1019.4 | |
| 20260507000505 | 14 | 0.0 | 0.0 | 0.00 | 0.00 | 20.98 | 88 | 1019.3 | |
| 20260506235505 | 14 | 0.0 | 0.0 | 0.00 | 0.00 | 20.98 | 88 | 1019.2 | |
| 20260506234505 | 14 | 0.0 | 0.0 | 0.00 | 0.00 | 20.98 | 88 | 1019.0 | |
| 20260506233505 | 14 | 0.0 | 0.0 | 0.00 | 0.00 | 20.98 | 89 | 1018.9 | |
| 20260506232505 | 15 | 0.0 | 0.0 | 0.00 | 0.00 | 20.98 | 89 | 1018.8 | |
| 20260506231505 | 15 | 0.0 | 0.0 | 0.00 | 0.00 | 20.98 | 88 | 1018.6 | |
| 20260506230505 | 15 | 0.0 | 0.0 | 0.00 | 0.00 | 20.98 | 87 | 1018.6 | |
| 20260506225505 | 15 | 0.0 | 0.0 | 0.00 | 0.00 | 20.98 | 85 | 1018.3 | |
| 20260506224505 | 15 | 0.0 | 0.0 | 0.00 | 0.00 | 20.98 | 88 | 1018.2 | |
| 20260506223505 | 15 | 0.0 | 0.0 | 0.00 | 0.00 | 20.98 | 92 | 1018.4 | |
| 20260506221505 | 15 | 0.0 | 0.0 | 0.00 | 0.00 | 20.98 | 90 | 1018.0 | |
| 20260506220505 | 15 | 0.0 | 0.0 | 0.00 | 0.00 | 20.98 | 90 | 1018.0 | |
| 20260506215505 | 15 | 0.0 | 0.0 | 0.00 | 0.00 | 20.98 | 88 | 1017.8 | |
| 20260506214505 | 15 | 0.0 | 0.0 | 0.00 | 0.00 | 20.98 | 90 | 1017.8 | |
| 20260506213505 | 15 | 0.0 | 0.0 | 0.00 | 0.00 | 20.98 | 89 | 1017.5 | |
| 20260506212505 | 16 | 0.0 | 0.0 | 0.00 | 0.00 | 20.98 | 89 | 1017.0 | |
| 20260506211505 | 16 | 0.0 | 0.0 | 0.00 | 0.00 | 20.98 | 86 | 1016.9 | |
| 20260506210505 | 16 | 0.0 | 0.0 | 0.00 | 0.00 | 20.98 | 87 | 1016.8 | |
| 20260506205505 | 16 | 0.0 | 0.0 | 0.00 | 0.00 | 20.98 | 86 | 1016.6 | |
| 20260506204505 | 17 | 0.0 | 0.0 | 0.00 | 0.00 | 20.98 | 82 | 1016.5 | |
| 20260506203505 | 17 | 0.0 | 0.0 | 0.00 | 0.00 | 20.98 | 82 | 1016.5 | |
| 20260506202505 | 17 | 0.0 | 0.0 | 0.00 | 0.00 | 20.98 | 82 | 1016.4 | |
| 20260506201505 | 17 | 0.0 | 0.0 | 0.00 | 0.00 | 20.98 | 80 | 1016.2 | |
| 20260506200505 | 17 | 0.0 | 0.0 | 0.00 | 0.00 | 20.98 | 77 | 1016.2 | |
| 20260506195505 | 17 | 0.0 | 0.0 | 0.00 | 0.00 | 20.98 | 79 | 1016.2 | |
| 20260506194505 | 18 | 0.0 | 0.0 | 0.00 | 0.00 | 20.98 | 75 | 1016.0 | |
| 20260506193505 | 18 | 0.0 | 0.0 | 0.00 | 0.00 | 20.98 | 74 | 1016.0 | |
| 20260506192505 | 18 | 0.0 | 0.0 | 0.00 | 0.00 | 20.98 | 74 | 1016.1 | |
| 20260506191505 | 18 | 0.0 | 0.0 | 0.00 | 0.00 | 20.98 | 72 | 1016.1 | |
| 20260506190505 | 18 | 0.0 | 0.0 | 0.00 | 0.00 | 20.98 | 70 | 1016.1 | |
| 20260506185505 | 18 | 0.0 | 0.0 | 0.00 | 0.00 | 20.98 | 69 | 1016.1 | |
| 20260506184505 | 18 | 0.0 | 0.0 | 0.00 | 0.00 | 20.98 | 70 | 1015.9 | |
| 20260506183505 | 18 | 0.0 | 0.0 | 0.00 | 0.00 | 20.98 | 72 | 1016.1 | |
| 20260506182505 | 18 | 0.0 | 0.0 | 0.00 | 0.00 | 20.98 | 73 | 1016.1 | |
| 20260506181505 | 18 | 0.0 | 0.0 | 0.00 | 0.00 | 20.98 | 72 | 1016.2 | |
| 20260506180505 | 17 | 0.0 | 0.0 | 0.00 | 0.00 | 20.98 | 74 | 1016.3 | |
| 20260506175505 | 17 | 0.0 | 0.0 | 0.00 | 0.00 | 20.98 | 75 | 1016.5 | |
| 20260506174505 | 17 | 0.0 | 0.0 | 0.00 | 0.00 | 20.98 | 74 | 1016.4 | |
| 20260506173505 | 17 | 0.0 | 0.0 | 0.00 | 0.00 | 20.98 | 70 | 1016.4 | |
| 20260506172505 | 17 | 0.0 | 0.0 | 0.00 | 0.00 | 20.98 | 71 | 1016.2 | |
| 20260506171505 | 17 | 0.0 | 0.0 | 0.00 | 0.00 | 20.98 | 72 | 1016.3 | |
| 20260506170505 | 17 | 0.0 | 0.0 | 0.00 | 0.00 | 20.98 | 71 | 1016.4 | |
| 20260506165505 | 17 | 0.0 | 0.0 | 0.00 | 0.00 | 20.98 | 73 | 1016.6 | |
| 20260506164505 | 17 | 0.0 | 0.0 | 0.00 | 0.00 | 20.98 | 72 | 1016.2 | |
| 20260506163505 | 17 | 0.0 | 0.0 | 0.00 | 0.00 | 20.98 | 69 | 1015.7 | |
| 20260506162505 | 17 | 0.0 | 0.0 | 0.00 | 0.00 | 20.98 | 66 | 1015.6 | |
| 20260506161505 | 18 | 0.0 | 0.0 | 0.00 | 0.00 | 20.98 | 59 | 1014.8 | |
| 20260506160505 | 19 | 0.0 | 0.0 | 0.00 | 0.00 | 20.98 | 50 | 1014.5 | |
| 20260506155505 | 20 | 0.0 | 0.0 | 0.00 | 0.00 | 20.98 | 46 | 1014.3 | |
| 20260506154505 | 19 | 0.0 | 0.0 | 0.00 | 0.00 | 20.98 | 48 | 1014.1 | |
| 20260506153505 | 20 | 0.0 | 0.0 | 0.00 | 0.00 | 20.98 | 48 | 1014.0 | |
| 20260506152505 | 20 | 0.0 | 0.0 | 0.00 | 0.00 | 20.98 | 45 | 1014.1 | |
| 20260506151505 | 20 | 0.0 | 0.0 | 0.00 | 0.00 | 20.98 | 48 | 1014.0 | |
| 20260506150505 | 20 | 0.0 | 0.0 | 0.00 | 0.00 | 20.98 | 49 | 1014.2 |